createdAt,value
2018-01-03T00:00:20.897Z,99538.12
2018-01-03T00:01:25.699Z,99538.66
2018-01-03T00:02:30.105Z,99540.06
2018-01-03T00:03:34.585Z,99528.50
2018-01-03T00:04:39.051Z,99518.16
2018-01-03T00:05:43.594Z,99520.48
2018-01-03T00:06:48.161Z,99519.36
2018-01-03T00:07:53.502Z,99510.63
2018-01-03T00:08:57.847Z,99508.25
2018-01-03T00:10:02.376Z,99497.23
2018-01-03T00:11:06.922Z,99487.07
2018-01-03T00:12:11.318Z,99493.62
2018-01-03T00:13:33.213Z,99484.53
2018-01-03T00:14:37.689Z,99494.84
2018-01-03T00:15:42.374Z,99467.34
2018-01-03T00:16:47.158Z,99477.83
2018-01-03T00:17:52.138Z,99471.31
2018-01-03T00:18:56.677Z,99477.70
2018-01-03T00:20:01.511Z,99462.26
2018-01-03T00:21:05.909Z,99473.27
2018-01-03T00:22:10.740Z,99468.87
2018-01-03T00:23:15.106Z,99444.72
2018-01-03T00:24:24.539Z,99442.83
2018-01-03T00:25:28.937Z,99422.23
2018-01-03T00:26:33.639Z,99425.77
2018-01-03T00:27:38.165Z,99415.61
2018-01-03T00:28:42.635Z,99413.17
2018-01-03T00:29:47.143Z,99406.42
2018-01-03T00:30:51.459Z,99400.30
2018-01-03T00:31:56.104Z,99393.64
2018-01-03T00:33:00.852Z,99393.54
2018-01-03T00:34:05.325Z,99384.41
2018-01-03T00:35:09.752Z,99371.18
2018-01-03T00:36:14.124Z,99375.52
2018-01-03T00:37:18.589Z,99378.30
2018-01-03T00:38:22.989Z,99366.44
2018-01-03T00:39:28.228Z,99368.17
2018-01-03T00:40:32.522Z,99362.19
2018-01-03T00:41:37.076Z,99358.53
2018-01-03T00:42:41.618Z,99360.96
2018-01-03T00:43:47.876Z,99369.30
2018-01-03T00:44:52.239Z,99353.63
2018-01-03T00:45:56.981Z,99346.13
2018-01-03T00:47:01.939Z,99352.20
2018-01-03T00:48:06.416Z,99345.25
2018-01-03T00:49:10.769Z,99350.35
2018-01-03T00:50:15.600Z,99335.52
2018-01-03T00:51:19.988Z,99327.89
2018-01-03T00:52:25.328Z,99322.14
2018-01-03T00:53:29.641Z,99312.89
2018-01-03T00:54:34.108Z,99324.33
2018-01-03T00:55:38.387Z,99314.11
2018-01-03T00:56:43.076Z,99299.30
2018-01-03T00:57:47.936Z,99294.88
2018-01-03T00:58:52.361Z,99294.23
2018-01-03T00:59:56.694Z,99292.55
2018-01-03T01:01:01.420Z,99288.59
2018-01-03T01:02:05.886Z,99282.41
2018-01-03T01:03:23.951Z,99286.05
2018-01-03T01:04:29.426Z,99276.34
2018-01-03T01:05:33.832Z,99278.08
2018-01-03T01:06:38.182Z,99278.03
2018-01-03T01:07:42.578Z,99259.81
2018-01-03T01:08:47.832Z,99269.40
2018-01-03T01:09:52.171Z,99268.61
2018-01-03T01:10:56.618Z,99262.20
2018-01-03T01:12:01.046Z,99265.16
2018-01-03T01:13:05.491Z,99248.33
2018-01-03T01:14:10.165Z,99233.80
2018-01-03T01:15:17.958Z,99230.00
2018-01-03T01:16:23.626Z,99223.87
2018-01-03T01:17:36.602Z,99212.73
2018-01-03T01:18:41.027Z,99214.55
2018-01-03T01:19:45.358Z,99220.54
2018-01-03T01:20:50.588Z,99202.10
2018-01-03T01:21:55.026Z,99205.69
2018-01-03T01:22:59.390Z,99182.11
2018-01-03T01:24:04.265Z,99179.28
2018-01-03T01:25:08.786Z,99181.39
2018-01-03T01:26:13.460Z,99178.59
2018-01-03T01:27:18.140Z,99176.38
2018-01-03T01:28:22.568Z,99177.53
2018-01-03T01:29:26.945Z,99154.43
2018-01-03T01:30:31.516Z,99146.38
2018-01-03T01:31:35.954Z,99143.58
2018-01-03T01:32:40.616Z,99128.45
2018-01-03T01:33:45.385Z,99132.50
2018-01-03T01:34:50.259Z,99127.55
2018-01-03T01:35:54.598Z,99115.84
2018-01-03T01:36:58.941Z,99108.33
2018-01-03T01:38:03.382Z,99115.79
2018-01-03T01:39:07.810Z,99096.83
2018-01-03T01:40:13.993Z,99092.67
2018-01-03T01:41:18.440Z,99085.81
2018-01-03T01:42:22.980Z,99079.67
2018-01-03T01:43:28.232Z,99069.77
2018-01-03T01:44:32.904Z,99069.47
2018-01-03T01:45:37.468Z,99066.91
2018-01-03T01:46:42.333Z,99053.64
2018-01-03T01:47:46.897Z,99043.70
2018-01-03T01:48:59.865Z,99032.13
2018-01-03T01:50:04.473Z,99015.09
2018-01-03T01:51:08.931Z,99016.66
2018-01-03T01:52:13.368Z,99018.33
2018-01-03T01:53:18.024Z,99012.76
2018-01-03T01:54:23.060Z,99003.34
2018-01-03T01:55:27.760Z,99005.44
2018-01-03T01:56:33.144Z,99004.69
2018-01-03T01:57:37.625Z,98980.85
2018-01-03T01:58:42.024Z,98995.81
2018-01-03T01:59:46.404Z,98977.81
2018-01-03T02:00:51.874Z,98969.14
2018-01-03T02:01:56.268Z,98954.51
2018-01-03T02:03:00.606Z,98948.16
2018-01-03T02:04:05.096Z,98955.27
2018-01-03T02:05:09.805Z,98930.64
2018-01-03T02:06:14.488Z,98925.58
2018-01-03T02:07:18.830Z,98909.55
2018-01-03T02:08:23.164Z,98902.42
2018-01-03T02:09:28.077Z,98888.62
2018-01-03T02:10:32.484Z,98889.91
2018-01-03T02:11:36.804Z,98887.92
2018-01-03T02:12:41.484Z,98876.80
2018-01-03T02:13:45.864Z,98864.59
2018-01-03T02:14:53.148Z,98853.42
2018-01-03T02:15:57.468Z,98855.61
2018-01-03T02:17:02.085Z,98847.48
2018-01-03T02:18:06.569Z,98843.91
2018-01-03T02:19:11.280Z,98835.89
2018-01-03T02:20:15.661Z,98830.27
2018-01-03T02:21:20.047Z,98820.56
2018-01-03T02:22:25.442Z,98826.80
2018-01-03T02:23:29.769Z,98825.41
2018-01-03T02:24:34.089Z,98818.31
2018-01-03T02:25:38.911Z,98812.87
2018-01-03T02:26:43.268Z,98808.97
2018-01-03T02:27:48.683Z,98797.98
2018-01-03T02:28:53.035Z,98795.97
2018-01-03T02:29:57.669Z,98801.45
2018-01-03T02:31:02.844Z,98791.67
2018-01-03T02:32:07.133Z,98773.09
2018-01-03T02:33:11.692Z,98753.44
2018-01-03T02:34:16.033Z,98748.27
2018-01-03T02:35:20.396Z,98734.55
2018-01-03T02:36:25.776Z,98737.31
2018-01-03T02:37:30.461Z,98738.25
2018-01-03T02:38:35.455Z,98728.51
2018-01-03T02:39:40.375Z,98712.31
2018-01-03T02:40:44.702Z,98702.45
2018-01-03T02:41:49.780Z,98690.17
2018-01-03T02:42:54.321Z,98676.65
2018-01-03T02:43:58.999Z,98686.67
2018-01-03T02:45:05.318Z,98668.63
2018-01-03T02:46:09.854Z,98659.97
2018-01-03T02:47:14.210Z,98654.63
2018-01-03T02:48:18.838Z,98650.58
2018-01-03T02:49:23.413Z,98643.53
2018-01-03T02:50:27.991Z,98635.63
2018-01-03T02:51:32.355Z,98627.94
2018-01-03T02:52:36.799Z,98614.11
2018-01-03T02:53:41.452Z,98604.67
2018-01-03T02:54:45.856Z,98599.33
2018-01-03T02:55:50.237Z,98585.77
2018-01-03T02:56:54.860Z,98565.85
2018-01-03T02:57:59.224Z,98573.97
2018-01-03T02:59:03.597Z,98557.98
2018-01-03T03:00:18.523Z,98543.21
2018-01-03T03:01:22.843Z,98542.25
2018-01-03T03:02:27.943Z,98537.34
2018-01-03T03:03:32.527Z,98523.23
2018-01-03T03:04:37.005Z,98515.08
2018-01-03T03:05:41.440Z,98500.92
2018-01-03T03:06:46.037Z,98487.98
2018-01-03T03:07:51.085Z,98478.41
2018-01-03T03:08:55.444Z,98468.19
2018-01-03T03:10:00.116Z,98453.02
2018-01-03T03:11:04.622Z,98446.52
2018-01-03T03:12:08.975Z,98434.26
2018-01-03T03:13:13.360Z,98435.49
2018-01-03T03:14:27.073Z,98427.45
2018-01-03T03:15:32.107Z,98420.95
2018-01-03T03:16:44.208Z,98408.98
2018-01-03T03:17:49.482Z,98411.94
2018-01-03T03:18:53.851Z,98410.14
2018-01-03T03:19:58.192Z,98398.98
2018-01-03T03:21:02.837Z,98383.94
2018-01-03T03:22:07.457Z,98377.44
2018-01-03T03:23:11.868Z,98385.34
2018-01-03T03:24:20.961Z,98377.09
2018-01-03T03:25:25.816Z,98359.22
2018-01-03T03:26:30.241Z,98371.53
2018-01-03T03:27:34.552Z,98352.93
2018-01-03T03:28:39.283Z,98346.61
2018-01-03T03:29:44.416Z,98340.73
2018-01-03T03:30:49.996Z,98334.97
2018-01-03T03:31:54.285Z,98340.45
2018-01-03T03:32:58.572Z,98320.73
2018-01-03T03:34:03.031Z,98305.79
2018-01-03T03:35:07.664Z,98300.05
2018-01-03T03:36:11.968Z,98293.80
2018-01-03T03:37:16.354Z,98290.02
2018-01-03T03:38:20.976Z,98282.11
2018-01-03T03:39:26.073Z,98270.98
2018-01-03T03:40:30.678Z,98261.20
2018-01-03T03:41:35.076Z,98238.27
2018-01-03T03:42:39.426Z,98242.57
2018-01-03T03:43:44.315Z,98253.94
2018-01-03T03:44:48.744Z,98239.59
2018-01-03T03:45:53.540Z,98243.09
2018-01-03T03:46:58.901Z,98237.64
2018-01-03T03:48:03.404Z,98218.70
2018-01-03T03:49:08.112Z,98228.88
2018-01-03T03:50:12.446Z,98205.59
2018-01-03T03:51:16.749Z,98188.45
2018-01-03T03:52:21.191Z,98187.61
2018-01-03T03:53:25.832Z,98177.00
2018-01-03T03:54:30.239Z,98175.48
2018-01-03T03:55:34.932Z,98180.03
2018-01-03T03:56:39.295Z,98158.25
2018-01-03T03:57:43.620Z,98176.91
2018-01-03T03:58:48.011Z,98166.11
2018-01-03T03:59:52.747Z,98167.66
2018-01-03T04:00:57.291Z,98171.88
2018-01-03T04:02:01.680Z,98160.56
2018-01-03T04:03:06.080Z,98155.45
2018-01-03T04:04:10.412Z,98150.09
2018-01-03T04:05:14.705Z,98132.13
2018-01-03T04:06:19.425Z,98127.11
2018-01-03T04:07:23.834Z,98151.66
2018-01-03T04:08:28.484Z,98132.38
2018-01-03T04:09:33.180Z,98125.08
2018-01-03T04:10:37.653Z,98136.83
2018-01-03T04:11:41.964Z,98138.67
2018-01-03T04:12:46.268Z,98144.78
2018-01-03T04:13:50.614Z,98138.67
2018-01-03T04:14:55.293Z,98140.98
2018-01-03T04:16:00.026Z,98116.77
2018-01-03T04:17:04.493Z,98095.66
2018-01-03T04:19:16.945Z,98090.28
2018-01-03T04:20:21.251Z,98073.74
2018-01-03T04:21:25.710Z,98067.16
2018-01-03T04:22:29.992Z,98083.17
2018-01-03T04:23:34.315Z,98072.55
2018-01-03T04:24:38.673Z,98076.55
2018-01-03T04:25:43.687Z,98045.12
2018-01-03T04:26:48.295Z,98041.57
2018-01-03T04:27:52.927Z,98041.69
2018-01-03T04:28:57.284Z,98068.71
2018-01-03T04:30:02.699Z,98051.29
2018-01-03T04:31:07.058Z,98045.72
2018-01-03T04:32:11.393Z,98056.76
2018-01-03T04:33:15.790Z,98074.13
2018-01-03T04:34:20.415Z,98039.14
2018-01-03T04:35:24.869Z,98030.22
2018-01-03T04:36:29.244Z,98045.03
2018-01-03T04:37:33.603Z,98049.52
2018-01-03T04:38:38.093Z,98037.89
2018-01-03T04:39:42.870Z,98033.95
2018-01-03T04:40:47.341Z,98035.62
2018-01-03T04:41:51.681Z,98021.23
2018-01-03T04:42:58.741Z,98019.27
2018-01-03T04:44:03.097Z,98004.00
2018-01-03T04:45:07.828Z,97993.91
2018-01-03T04:46:12.521Z,97983.03
2018-01-03T04:47:16.909Z,97973.42
2018-01-03T04:48:22.499Z,97993.60
2018-01-03T04:49:27.711Z,97987.59
2018-01-03T04:50:31.980Z,97989.55
2018-01-03T04:51:36.319Z,97978.77
2018-01-03T04:52:40.743Z,97997.84
2018-01-03T04:53:45.082Z,97973.88
2018-01-03T04:54:50.427Z,97972.72
2018-01-03T04:55:54.925Z,97995.71
2018-01-03T04:56:59.402Z,97997.23
2018-01-03T04:58:04.289Z,97982.23
2018-01-03T04:59:08.681Z,97992.94
2018-01-03T05:00:23.888Z,97977.94
2018-01-03T05:01:31.196Z,97996.40
2018-01-03T05:02:35.492Z,97982.80
2018-01-03T05:03:39.963Z,98002.52
2018-01-03T05:04:44.582Z,97986.89
2018-01-03T05:05:49.038Z,97990.72
2018-01-03T05:06:53.331Z,97983.96
2018-01-03T05:07:57.837Z,97985.77
2018-01-03T05:09:02.264Z,97969.68
2018-01-03T05:10:07.608Z,97943.45
2018-01-03T05:11:12.318Z,97948.11
2018-01-03T05:12:16.641Z,97941.52
2018-01-03T05:13:20.956Z,97949.81
2018-01-03T05:14:25.396Z,97948.03
2018-01-03T05:15:30.475Z,97956.72
2018-01-03T05:16:35.233Z,97957.30
2018-01-03T05:17:39.925Z,97977.86
2018-01-03T05:18:44.216Z,97978.08
2018-01-03T05:19:48.677Z,97988.49
2018-01-03T05:20:53.913Z,97983.02
2018-01-03T05:21:58.205Z,97992.84
2018-01-03T05:23:02.663Z,97996.67
2018-01-03T05:24:07.241Z,97991.26
2018-01-03T05:25:12.021Z,97993.91
2018-01-03T05:26:16.310Z,98015.14
2018-01-03T05:27:20.630Z,98004.63
2018-01-03T05:28:24.994Z,98005.44
2018-01-03T05:29:30.357Z,98011.59
2018-01-03T05:30:34.920Z,98021.37
2018-01-03T05:31:39.253Z,98022.27
2018-01-03T05:32:43.575Z,98026.52
2018-01-03T05:33:47.944Z,98024.88
2018-01-03T05:34:52.546Z,98017.48
2018-01-03T05:35:57.750Z,97999.79
2018-01-03T05:37:02.343Z,98009.10
2018-01-03T05:38:07.031Z,98011.97
2018-01-03T05:39:11.413Z,98012.44
2018-01-03T05:40:15.907Z,98008.12
2018-01-03T05:41:20.577Z,98007.34
2018-01-03T05:42:24.867Z,98017.48
2018-01-03T05:43:29.793Z,98016.09
2018-01-03T05:44:34.180Z,98011.75
2018-01-03T05:45:38.729Z,98013.02
2018-01-03T05:46:43.078Z,98011.73
2018-01-03T05:47:47.681Z,98020.20
2018-01-03T05:48:52.912Z,98026.56
2018-01-03T05:49:57.497Z,98006.70
2018-01-03T05:51:01.912Z,98007.91
2018-01-03T05:52:06.272Z,98004.84
2018-01-03T05:53:10.637Z,97997.58
2018-01-03T05:54:15.105Z,98001.02
2018-01-03T05:55:19.406Z,97997.13
2018-01-03T05:56:24.014Z,97999.31
2018-01-03T05:57:28.977Z,97997.41
2018-01-03T05:58:33.274Z,98017.22
2018-01-03T05:59:37.667Z,98010.99
2018-01-03T06:00:42.709Z,98008.77
2018-01-03T06:01:47.140Z,98003.30
2018-01-03T06:02:51.963Z,98004.69
2018-01-03T06:03:56.729Z,98016.32
2018-01-03T06:05:01.325Z,98013.81
2018-01-03T06:06:06.013Z,98008.87
2018-01-03T06:07:10.734Z,98014.45
2018-01-03T06:08:15.233Z,98016.67
2018-01-03T06:09:19.538Z,98027.09
2018-01-03T06:10:23.940Z,98031.05
2018-01-03T06:11:28.266Z,98033.30
2018-01-03T06:12:32.582Z,98041.22
2018-01-03T06:13:38.200Z,98018.64
2018-01-03T06:14:42.981Z,98027.68
2018-01-03T06:15:47.564Z,98028.05
2018-01-03T06:16:53.032Z,98028.05
2018-01-03T06:17:57.374Z,98046.19
2018-01-03T06:19:01.718Z,98028.13
2018-01-03T06:20:06.060Z,98026.06
2018-01-03T06:21:10.384Z,98024.57
2018-01-03T06:22:14.860Z,98047.22
2018-01-03T06:23:19.245Z,98055.04
2018-01-03T06:24:31.507Z,98050.63
2018-01-03T06:25:35.862Z,98057.08
2018-01-03T06:26:40.328Z,98059.05
2018-01-03T06:27:44.988Z,98059.37
2018-01-03T06:28:49.323Z,98065.37
2018-01-03T06:29:53.812Z,98067.23
2018-01-03T06:30:58.510Z,98059.06
2018-01-03T06:32:03.249Z,98056.46
2018-01-03T06:33:07.785Z,98044.42
2018-01-03T06:34:12.096Z,98064.12
2018-01-03T06:35:16.425Z,98058.65
2018-01-03T06:36:20.738Z,98053.45
2018-01-03T06:37:25.493Z,98027.55
2018-01-03T06:38:29.793Z,98050.22
2018-01-03T06:39:34.511Z,98050.80
2018-01-03T06:40:39.108Z,98042.30
2018-01-03T06:41:43.660Z,98042.73
2018-01-03T06:42:48.844Z,98044.86
2018-01-03T06:43:53.674Z,98045.92
2018-01-03T06:44:59.067Z,98047.94
2018-01-03T06:46:03.688Z,98040.78
2018-01-03T06:47:08.019Z,98029.73
2018-01-03T06:48:16.752Z,98043.86
2018-01-03T06:49:21.069Z,98040.30
2018-01-03T06:50:25.519Z,98035.85
2018-01-03T06:51:30.821Z,98035.00
2018-01-03T06:52:35.214Z,98037.70
2018-01-03T06:53:39.652Z,98034.30
2018-01-03T06:54:43.987Z,98042.48
2018-01-03T06:55:49.053Z,98025.34
2018-01-03T06:56:53.520Z,98038.97
2018-01-03T06:57:57.835Z,98037.49
2018-01-03T06:59:02.152Z,98033.34
2018-01-03T07:00:08.150Z,98041.90
2018-01-03T07:01:12.864Z,98040.26
2018-01-03T07:02:17.230Z,98036.52
2018-01-03T07:03:21.552Z,98040.92
2018-01-03T07:04:25.971Z,98040.80
2018-01-03T07:05:30.259Z,98039.33
2018-01-03T07:06:34.881Z,98040.38
2018-01-03T07:07:39.193Z,98045.73
2018-01-03T07:08:44.119Z,98048.58
2018-01-03T07:09:48.536Z,98037.70
2018-01-03T07:10:52.919Z,98047.72
2018-01-03T07:11:57.272Z,98040.50
2018-01-03T07:13:01.911Z,98035.63
2018-01-03T07:14:07.341Z,98034.64
2018-01-03T07:15:14.536Z,98047.06
2018-01-03T07:16:19.089Z,98035.27
2018-01-03T07:18:22.006Z,98029.59
2018-01-03T07:19:28.404Z,98029.17
2018-01-03T07:20:32.757Z,98025.52
2018-01-03T07:21:37.134Z,98021.70
2018-01-03T07:22:41.563Z,98026.35
2018-01-03T07:23:45.887Z,98028.88
2018-01-03T07:24:50.257Z,98023.06
2018-01-03T07:25:54.655Z,98030.84
2018-01-03T07:26:58.972Z,98036.00
2018-01-03T07:28:03.345Z,98031.56
2018-01-03T07:29:07.837Z,98040.14
2018-01-03T07:30:14.253Z,98025.09
2018-01-03T07:31:18.630Z,98033.06
2018-01-03T07:32:27.815Z,98035.37
2018-01-03T07:33:32.177Z,98028.14
2018-01-03T07:34:36.521Z,98035.20
2018-01-03T07:35:40.973Z,98027.00
2018-01-03T07:36:45.365Z,98038.64
2018-01-03T07:37:49.674Z,98023.79
2018-01-03T07:38:54.298Z,98017.52
2018-01-03T07:39:58.698Z,98022.01
2018-01-03T07:41:03.178Z,98021.72
2018-01-03T07:42:07.564Z,98023.62
2018-01-03T07:43:12.552Z,98012.22
2018-01-03T07:44:16.910Z,98021.38
2018-01-03T07:45:22.149Z,98019.49
2018-01-03T07:46:27.492Z,98023.94
2018-01-03T07:47:31.937Z,98021.81
2018-01-03T07:48:36.321Z,98018.88
2018-01-03T07:49:41.494Z,98023.13
2018-01-03T07:50:49.747Z,98015.95
2018-01-03T07:51:55.156Z,98022.80
2018-01-03T07:53:00.673Z,98026.48
2018-01-03T07:54:05.981Z,98023.18
2018-01-03T07:55:10.365Z,98024.23
2018-01-03T07:56:18.573Z,98021.82
2018-01-03T07:57:23.164Z,98021.53
2018-01-03T07:58:28.438Z,98026.59
2018-01-03T07:59:32.781Z,98023.62
2018-01-03T08:00:37.595Z,98020.34
2018-01-03T08:01:42.818Z,98021.95
2018-01-03T08:02:47.168Z,98020.77
2018-01-03T08:03:51.929Z,98017.50
2018-01-03T08:04:56.324Z,98024.88
2018-01-03T08:06:01.686Z,98026.53
2018-01-03T08:07:06.081Z,98029.61
2018-01-03T08:08:10.664Z,98037.41
2018-01-03T08:09:15.570Z,98039.67
2018-01-03T08:10:20.031Z,98043.63
2018-01-03T08:11:24.367Z,98044.44
2018-01-03T08:12:29.256Z,98049.27
2018-01-03T08:13:33.690Z,98056.03
2018-01-03T08:14:38.028Z,98051.59
2018-01-03T08:15:42.764Z,98047.70
2018-01-03T08:16:47.626Z,98046.29
2018-01-03T08:17:51.964Z,98044.95
2018-01-03T08:18:56.584Z,98052.29
2018-01-03T08:20:00.945Z,98058.97
2018-01-03T08:21:05.429Z,98052.53
2018-01-03T08:22:10.357Z,98055.32
2018-01-03T08:23:16.129Z,98047.66
2018-01-03T08:24:20.622Z,98052.91
2018-01-03T08:25:33.862Z,98058.77
2018-01-03T08:26:38.635Z,98065.10
2018-01-03T08:27:42.997Z,98071.00
2018-01-03T08:28:47.758Z,98072.23
2018-01-03T08:29:52.324Z,98068.84
2018-01-03T08:30:56.901Z,98066.81
2018-01-03T08:32:01.340Z,98070.33
2018-01-03T08:33:06.082Z,98079.79
2018-01-03T08:34:10.760Z,98074.16
2018-01-03T08:35:15.653Z,98083.09
2018-01-03T08:36:25.304Z,98075.04
2018-01-03T08:37:30.302Z,98070.36
2018-01-03T08:38:34.654Z,98083.79
2018-01-03T08:39:39.076Z,98074.52
2018-01-03T08:40:43.817Z,98096.60
2018-01-03T08:41:48.172Z,98084.95
2018-01-03T08:42:52.600Z,98077.87
2018-01-03T08:43:56.980Z,98079.05
2018-01-03T08:45:03.228Z,98081.48
2018-01-03T08:46:07.907Z,98085.55
2018-01-03T08:47:13.043Z,98086.56
2018-01-03T08:48:25.921Z,98084.12
2018-01-03T08:49:30.955Z,98093.95
2018-01-03T08:50:35.348Z,98093.13
2018-01-03T08:51:39.792Z,98099.41
2018-01-03T08:52:44.605Z,98094.59
2018-01-03T08:53:48.940Z,98093.10
2018-01-03T08:54:53.360Z,98096.23
2018-01-03T08:55:58.157Z,98084.94
2018-01-03T08:57:02.570Z,98106.61
2018-01-03T08:58:09.380Z,98105.47
2018-01-03T08:59:13.703Z,98097.06
2018-01-03T09:00:18.376Z,98114.69
2018-01-03T09:01:22.938Z,98097.48
2018-01-03T09:02:28.365Z,98104.19
2018-01-03T09:03:33.052Z,98098.25
2018-01-03T09:04:37.521Z,98090.73
2018-01-03T09:05:41.905Z,98104.73
2018-01-03T09:06:46.217Z,98122.91
2018-01-03T09:07:50.618Z,98117.28
2018-01-03T09:08:55.369Z,98119.37
2018-01-03T09:10:00.087Z,98108.36
2018-01-03T09:11:04.428Z,98108.27
2018-01-03T09:12:09.052Z,98117.63
2018-01-03T09:13:13.493Z,98112.76
2018-01-03T09:14:17.882Z,98114.98
2018-01-03T09:15:32.809Z,98117.87
2018-01-03T09:16:37.893Z,98118.55
2018-01-03T09:17:42.228Z,98123.29
2018-01-03T09:18:46.548Z,98117.77
2018-01-03T09:19:50.932Z,98114.81
2018-01-03T09:20:55.281Z,98128.86
2018-01-03T09:22:00.015Z,98123.09
2018-01-03T09:23:04.420Z,98141.20
2018-01-03T09:24:08.777Z,98126.45
2018-01-03T09:25:14.564Z,98135.98
2018-01-03T09:26:19.056Z,98143.45
2018-01-03T09:27:23.429Z,98135.23
2018-01-03T09:28:27.883Z,98133.25
2018-01-03T09:29:32.274Z,98144.52
2018-01-03T09:30:37.122Z,98146.05
2018-01-03T09:31:41.484Z,98136.35
2018-01-03T09:32:46.237Z,98142.63
2018-01-03T09:33:50.852Z,98139.02
2018-01-03T09:34:55.186Z,98134.72
2018-01-03T09:35:59.633Z,98156.43
2018-01-03T09:37:05.048Z,98163.78
2018-01-03T09:38:09.461Z,98142.95
2018-01-03T09:39:13.805Z,98145.25
2018-01-03T09:40:18.502Z,98127.94
2018-01-03T09:41:23.414Z,98139.73
2018-01-03T09:42:28.847Z,98132.92
2018-01-03T09:43:33.965Z,98135.31
2018-01-03T09:44:38.496Z,98132.31
2018-01-03T09:45:43.175Z,98131.89
2018-01-03T09:46:47.575Z,98130.52
2018-01-03T09:47:51.888Z,98131.66
2018-01-03T09:48:57.317Z,98126.75
2018-01-03T09:50:01.804Z,98131.02
2018-01-03T09:51:06.316Z,98134.14
2018-01-03T09:52:11.080Z,98134.27
2018-01-03T09:53:16.012Z,98142.09
2018-01-03T09:54:20.577Z,98147.95
2018-01-03T09:55:24.942Z,98143.18
2018-01-03T09:56:30.276Z,98126.80
2018-01-03T09:57:38.036Z,98141.31
2018-01-03T09:58:42.401Z,98133.93
2018-01-03T09:59:46.832Z,98126.78
2018-01-03T10:00:51.393Z,98124.13
2018-01-03T10:01:57.160Z,98123.66
2018-01-03T10:03:02.847Z,98134.50
2018-01-03T10:04:07.192Z,98128.02
2018-01-03T10:05:19.145Z,98132.16
2018-01-03T10:06:27.943Z,98122.09
2018-01-03T10:07:42.549Z,98120.81
2018-01-03T10:08:47.540Z,98146.34
2018-01-03T10:09:51.915Z,98122.95
2018-01-03T10:10:56.677Z,98125.39
2018-01-03T10:12:01.028Z,98136.45
2018-01-03T10:13:05.557Z,98122.27
2018-01-03T10:14:10.035Z,98145.80
2018-01-03T10:15:16.943Z,98125.23
2018-01-03T10:16:21.482Z,98119.67
2018-01-03T10:17:32.443Z,98120.71
2018-01-03T10:18:36.885Z,98132.72
2018-01-03T10:19:41.233Z,98121.36
2018-01-03T10:20:45.625Z,98140.02
2018-01-03T10:21:50.385Z,98117.56
2018-01-03T10:22:54.980Z,98115.95
2018-01-03T10:23:59.384Z,98105.74
2018-01-03T10:25:04.101Z,98133.20
2018-01-03T10:26:08.589Z,98133.41
2018-01-03T10:27:14.182Z,98121.16
2018-01-03T10:28:18.677Z,98122.73
2018-01-03T10:29:23.073Z,98115.14
2018-01-03T10:30:28.573Z,98108.57
2018-01-03T10:31:33.215Z,98118.56
2018-01-03T10:32:38.377Z,98112.63
2018-01-03T10:33:43.099Z,98114.05
2018-01-03T10:34:47.623Z,98098.22
2018-01-03T10:35:52.865Z,98111.61
2018-01-03T10:36:57.216Z,98097.19
2018-01-03T10:38:01.643Z,98097.75
2018-01-03T10:39:06.374Z,98091.14
2018-01-03T10:40:18.128Z,98103.69
2018-01-03T10:41:22.872Z,98091.39
2018-01-03T10:42:28.885Z,98085.20
2018-01-03T10:43:33.407Z,98084.86
2018-01-03T10:44:38.147Z,98071.72
2018-01-03T10:45:42.853Z,98091.13
2018-01-03T10:46:47.260Z,98084.19
2018-01-03T10:47:51.688Z,98085.12
2018-01-03T10:48:56.457Z,98078.33
2018-01-03T10:50:00.930Z,98081.20
2018-01-03T10:51:05.352Z,98060.72
2018-01-03T10:52:09.729Z,98066.62
2018-01-03T10:53:17.684Z,98063.63
2018-01-03T10:54:22.207Z,98076.52
2018-01-03T10:55:27.916Z,98046.14
2018-01-03T10:56:32.661Z,98044.91
2018-01-03T10:57:37.254Z,98051.61
2018-01-03T10:58:41.824Z,98059.11
2018-01-03T10:59:46.199Z,98043.72
2018-01-03T11:00:51.135Z,98040.43
2018-01-03T11:01:55.619Z,98054.64
2018-01-03T11:03:00.408Z,98037.92
2018-01-03T11:04:05.183Z,98042.14
2018-01-03T11:05:09.589Z,98037.37
2018-01-03T11:06:14.922Z,98056.44
2018-01-03T11:07:22.756Z,98035.75
2018-01-03T11:08:27.105Z,98051.10
2018-01-03T11:09:32.588Z,98028.24
2018-01-03T11:10:36.997Z,98040.80
2018-01-03T11:11:41.423Z,98003.73
2018-01-03T11:12:45.925Z,98018.02
2018-01-03T11:13:50.706Z,98021.39
2018-01-03T11:14:55.136Z,98018.92
2018-01-03T11:16:00.492Z,98023.61
2018-01-03T11:17:04.452Z,98017.59
2018-01-03T11:18:08.896Z,98018.97
2018-01-03T11:19:13.352Z,97996.12
2018-01-03T11:20:17.742Z,98026.42
2018-01-03T11:21:22.689Z,98006.85
2018-01-03T11:22:27.383Z,97993.43
2018-01-03T11:23:32.776Z,98001.95
2018-01-03T11:24:37.349Z,97982.48
2018-01-03T11:25:42.069Z,97995.64
2018-01-03T11:26:46.516Z,97998.75
2018-01-03T11:27:50.982Z,98003.61
2018-01-03T11:28:55.436Z,97993.94
2018-01-03T11:29:59.861Z,97976.67
2018-01-03T11:31:04.467Z,98004.02
2018-01-03T11:32:13.490Z,97991.48
2018-01-03T11:33:19.018Z,97967.72
2018-01-03T11:34:23.479Z,97978.37
2018-01-03T11:35:28.683Z,97986.16
2018-01-03T11:36:33.258Z,97969.08
2018-01-03T11:37:37.758Z,97977.72
2018-01-03T11:38:42.786Z,97967.70
2018-01-03T11:39:48.214Z,97951.87
2018-01-03T11:40:52.762Z,97999.02
2018-01-03T11:41:57.326Z,97954.59
2018-01-03T11:43:01.917Z,97981.16
2018-01-03T11:44:06.709Z,97969.87
2018-01-03T11:45:13.675Z,97992.82
2018-01-03T11:46:18.728Z,97964.02
2018-01-03T11:47:23.419Z,97990.00
2018-01-03T11:48:28.119Z,97978.84
2018-01-03T11:49:32.743Z,97967.90
2018-01-03T11:50:37.409Z,97949.72
2018-01-03T11:51:41.783Z,97966.23
2018-01-03T11:52:46.348Z,97968.02
2018-01-03T11:53:50.757Z,97960.91
2018-01-03T11:54:55.153Z,97967.73
2018-01-03T11:55:59.580Z,97934.00
2018-01-03T11:57:04.427Z,97966.20
2018-01-03T11:58:08.833Z,97939.62
2018-01-03T11:59:11.640Z,97946.16
2018-01-03T12:00:17.623Z,97930.77
2018-01-03T12:01:22.055Z,97948.09
2018-01-03T12:02:27.917Z,97936.69
2018-01-03T12:03:32.476Z,97951.98
2018-01-03T12:04:36.977Z,97938.57
2018-01-03T12:05:41.638Z,97930.69
2018-01-03T12:06:46.807Z,97935.08
2018-01-03T12:07:51.294Z,97913.10
2018-01-03T12:08:56.865Z,97939.94
2018-01-03T12:10:01.395Z,97939.00
2018-01-03T12:11:05.778Z,97929.68
2018-01-03T12:12:10.244Z,97956.55
2018-01-03T12:13:14.710Z,97951.14
2018-01-03T12:14:19.620Z,97936.07
2018-01-03T12:15:24.577Z,97940.84
2018-01-03T12:16:29.317Z,97941.61
2018-01-03T12:17:33.807Z,97941.53
2018-01-03T12:18:38.258Z,97955.11
2018-01-03T12:19:42.766Z,97932.66
2018-01-03T12:20:47.183Z,97943.66
2018-01-03T12:21:51.590Z,97938.38
2018-01-03T12:22:56.022Z,97951.41
2018-01-03T12:24:00.583Z,97927.04
2018-01-03T12:25:05.358Z,97922.78
2018-01-03T12:26:09.882Z,97939.05
2018-01-03T12:27:15.184Z,97918.22
2018-01-03T12:28:20.615Z,97920.25
2018-01-03T12:29:25.047Z,97920.03
2018-01-03T12:30:29.531Z,97922.52
2018-01-03T12:31:34.171Z,97930.05
2018-01-03T12:32:39.815Z,97920.34
2018-01-03T12:33:49.717Z,97937.05
2018-01-03T12:34:54.175Z,97956.98
2018-01-03T12:35:58.722Z,97920.00
2018-01-03T12:37:09.521Z,97921.23
2018-01-03T12:38:14.837Z,97929.80
2018-01-03T12:39:19.693Z,97934.66
2018-01-03T12:40:24.274Z,97918.84
2018-01-03T12:41:28.738Z,97942.11
2018-01-03T12:42:33.355Z,97946.71
2018-01-03T12:43:37.964Z,97926.80
2018-01-03T12:44:42.503Z,97928.84